Time;durP1;ratioP1;P1;durP2;ratioP2;P2;SDS_P1;SDS_P2;PMS_P1;PMS_P2;Temp;Humidity;BMP_temperature;BMP_pressure;BME280_temperature;BME280_humidity;BME280_pressure;Samples;Min_cycle;Max_cycle;Signal;HPM_P1;HPM_P2
2022/12/14 00:01:13;;;;;;;26.80;18.08;;;0.90;99.90;;;;;;5042150;28;20392;-62
2022/12/14 00:03:40;;;;;;;31.42;18.60;;;0.90;99.90;;;;;;5036311;28;20136;-62
2022/12/14 00:06:06;;;;;;;28.52;18.00;;;0.90;99.90;;;;;;5054580;28;20045;-62
2022/12/14 00:08:33;;;;;;;25.17;17.10;;;0.90;99.90;;;;;;5054500;28;20400;-62
2022/12/14 00:11:07;;;;;;;29.35;18.48;;;0.90;99.90;;;;;;5049608;28;20039;-63
2022/12/14 00:13:34;;;;;;;31.25;18.50;;;0.90;99.90;;;;;;5034401;28;20044;-63
2022/12/14 00:16:00;;;;;;;23.55;16.80;;;0.90;99.90;;;;;;5033949;28;20064;-63
2022/12/14 00:18:27;;;;;;;25.75;17.58;;;0.90;99.90;;;;;;5046878;28;20510;-63
2022/12/14 00:20:55;;;;;;;29.27;18.73;;;0.90;99.90;;;;;;5034824;28;20107;-63
2022/12/14 00:23:21;;;;;;;27.80;17.05;;;0.90;99.90;;;;;;5034643;28;20473;-63
2022/12/14 00:25:48;;;;;;;26.40;17.90;;;1.00;99.90;;;;;;5039968;28;20051;-63
2022/12/14 00:28:15;;;;;;;24.73;17.08;;;1.00;99.90;;;;;;5052932;28;20049;-63
2022/12/14 00:30:41;;;;;;;27.38;18.55;;;1.00;99.90;;;;;;5042433;28;20065;-63
2022/12/14 00:33:09;;;;;;;26.52;17.42;;;0.90;99.90;;;;;;5033875;28;20061;-63
2022/12/14 00:35:35;;;;;;;27.77;18.90;;;0.90;99.90;;;;;;5034169;28;20092;-62
2022/12/14 00:38:02;;;;;;;23.63;16.70;;;0.90;99.90;;;;;;5035028;28;20052;-62
2022/12/14 00:40:29;;;;;;;25.55;17.83;;;0.90;99.90;;;;;;5033311;28;20115;-63
2022/12/14 00:42:56;;;;;;;24.20;17.38;;;0.90;99.90;;;;;;5033226;28;20045;-63
2022/12/14 00:45:23;;;;;;;26.08;18.33;;;0.90;99.90;;;;;;5033874;28;20503;-63
2022/12/14 00:47:49;;;;;;;26.02;18.17;;;0.90;99.90;;;;;;5039161;28;20462;-62
2022/12/14 00:50:16;;;;;;;27.58;18.25;;;0.90;99.90;;;;;;5052275;28;20495;-63
2022/12/14 00:52:43;;;;;;;25.15;16.95;;;0.90;99.90;;;;;;5053514;28;20045;-63
2022/12/14 00:55:10;;;;;;;23.30;16.50;;;0.90;99.90;;;;;;5053579;28;20045;-63
2022/12/14 00:57:37;;;;;;;26.83;17.20;;;0.90;99.90;;;;;;5036559;28;20037;-62
2022/12/14 01:00:04;;;;;;;25.60;17.77;;;0.90;99.90;;;;;;5032277;28;20076;-62
2022/12/14 01:02:31;;;;;;;24.45;17.27;;;0.80;99.90;;;;;;5032538;28;20045;-63
2022/12/14 01:04:58;;;;;;;27.63;18.13;;;0.80;99.90;;;;;;5032948;28;20049;-62
2022/12/14 01:07:24;;;;;;;24.20;16.73;;;0.80;99.90;;;;;;5032280;28;20121;-62
2022/12/14 01:09:51;;;;;;;26.30;16.88;;;0.80;99.90;;;;;;5035682;28;20434;-62
2022/12/14 01:12:18;;;;;;;26.60;17.55;;;0.80;99.90;;;;;;5051332;28;20033;-62
2022/12/14 01:14:45;;;;;;;26.52;17.10;;;0.70;99.90;;;;;;5040453;28;20091;-63
2022/12/14 01:17:12;;;;;;;25.13;17.02;;;0.70;99.90;;;;;;5032995;28;20041;-63
2022/12/14 01:19:38;;;;;;;25.45;17.42;;;0.70;99.90;;;;;;5032590;28;20123;-63
2022/12/14 01:22:05;;;;;;;25.40;17.13;;;0.80;99.90;;;;;;5044306;28;20424;-63
2022/12/14 01:24:32;;;;;;;24.20;16.27;;;0.80;99.90;;;;;;5051648;28;20076;-63
2022/12/14 01:26:59;;;;;;;24.23;16.80;;;0.80;99.90;;;;;;5051848;28;20041;-63
2022/12/14 01:29:25;;;;;;;23.88;16.00;;;0.80;99.90;;;;;;5052920;28;20389;-62
2022/12/14 01:31:52;;;;;;;22.88;16.25;;;0.80;99.90;;;;;;5049546;28;20139;-63
2022/12/14 01:34:19;;;;;;;28.60;17.10;;;0.80;99.90;;;;;;5031215;28;20049;-62
2022/12/14 01:36:46;;;;;;;25.25;17.33;;;0.80;99.90;;;;;;5036531;28;20369;-62
2022/12/14 01:39:12;;;;;;;23.77;16.42;;;0.80;99.90;;;;;;5044546;28;20048;-62
2022/12/14 01:41:39;;;;;;;24.92;16.20;;;0.80;99.90;;;;;;5046615;28;20124;-62
2022/12/14 01:44:06;;;;;;;24.70;17.10;;;0.80;99.90;;;;;;5052666;28;20069;-62
2022/12/14 01:46:32;;;;;;;22.45;15.65;;;0.80;99.90;;;;;;5052392;28;20376;-63
2022/12/14 01:48:59;;;;;;;22.42;16.80;;;0.80;99.90;;;;;;5052378;28;20041;-62
2022/12/14 01:51:26;;;;;;;21.15;15.10;;;0.80;99.90;;;;;;5052603;28;20049;-63
2022/12/14 01:53:53;;;;;;;23.85;16.40;;;0.80;99.90;;;;;;5032773;28;20124;-62
2022/12/14 01:56:19;;;;;;;25.02;16.23;;;0.80;99.90;;;;;;5031754;28;20041;-63
2022/12/14 01:58:46;;;;;;;30.95;18.35;;;0.80;99.90;;;;;;5032206;28;20049;-63
2022/12/14 02:01:13;;;;;;;23.77;17.13;;;0.70;99.90;;;;;;5032536;28;20473;-63
2022/12/14 02:03:40;;;;;;;26.05;17.08;;;0.70;99.90;;;;;;5032737;28;20128;-63
2022/12/14 02:06:07;;;;;;;23.17;16.48;;;0.70;99.90;;;;;;5035217;28;20056;-62
2022/12/14 02:08:33;;;;;;;24.08;16.63;;;0.60;99.90;;;;;;5049436;28;20044;-62
2022/12/14 02:11:00;;;;;;;23.33;17.23;;;0.70;99.90;;;;;;5043257;28;20140;-62
2022/12/14 02:13:27;;;;;;;23.92;16.17;;;0.70;99.90;;;;;;5051672;28;20033;-63
2022/12/14 02:15:54;;;;;;;25.00;16.50;;;0.70;99.90;;;;;;5031943;28;20504;-63
2022/12/14 02:18:21;;;;;;;25.30;17.83;;;0.70;99.90;;;;;;5032574;28;20045;-63
2022/12/14 02:20:48;;;;;;;26.75;17.13;;;0.60;99.90;;;;;;5044131;28;20511;-62
2022/12/14 02:23:14;;;;;;;25.80;17.38;;;0.70;99.90;;;;;;5052281;28;20563;-62
2022/12/14 02:25:43;;;;;;;23.35;17.42;;;0.70;99.90;;;;;;5045842;28;20038;-62
2022/12/14 02:28:15;;;;;;;26.58;17.50;;;0.70;99.90;;;;;;5031995;28;20068;-62
2022/12/14 02:30:42;;;;;;;26.58;17.73;;;0.70;99.90;;;;;;5031696;28;20302;-63
2022/12/14 02:33:08;;;;;;;25.88;17.75;;;0.60;99.90;;;;;;5032543;28;20480;-62
2022/12/14 02:35:35;;;;;;;23.40;17.55;;;0.70;99.90;;;;;;5031891;28;20443;-62
2022/12/14 02:38:02;;;;;;;25.65;16.77;;;0.70;99.90;;;;;;5032029;28;20440;-63
2022/12/14 02:40:28;;;;;;;22.27;16.83;;;0.60;99.90;;;;;;5032359;28;20041;-62
2022/12/14 02:42:55;;;;;;;30.25;17.70;;;0.60;99.90;;;;;;5031804;28;20168;-62
2022/12/14 02:45:22;;;;;;;28.00;17.42;;;0.60;99.90;;;;;;5046221;28;20045;-63
2022/12/14 02:47:49;;;;;;;24.92;16.40;;;0.60;99.90;;;;;;5052834;28;20136;-62
2022/12/14 02:50:15;;;;;;;23.38;15.77;;;0.50;99.90;;;;;;5049874;28;20132;-62
2022/12/14 02:52:42;;;;;;;23.88;16.60;;;0.50;99.90;;;;;;5042600;28;20033;-63
2022/12/14 02:55:09;;;;;;;22.13;15.50;;;0.50;99.90;;;;;;5031841;28;20448;-63
2022/12/14 02:57:35;;;;;;;24.17;16.45;;;0.50;99.90;;;;;;5030402;28;20129;-62
2022/12/14 03:00:03;;;;;;;20.58;14.95;;;0.40;99.90;;;;;;5032254;28;20124;-63
2022/12/14 03:02:30;;;;;;;21.38;15.82;;;0.40;99.90;;;;;;5013279;28;20425;-62
2022/12/14 03:04:56;;;;;;;23.95;17.00;;;0.40;99.90;;;;;;5049773;28;20057;-62
2022/12/14 03:07:23;;;;;;;22.70;15.88;;;0.40;99.90;;;;;;5052077;28;20053;-63
2022/12/14 03:09:50;;;;;;;25.13;16.83;;;0.30;99.90;;;;;;5052471;28;20041;-63
2022/12/14 03:12:17;;;;;;;23.23;15.40;;;0.40;99.90;;;;;;5048308;28;20435;-62
2022/12/14 03:14:43;;;;;;;24.77;17.05;;;0.30;99.90;;;;;;5034435;28;20069;-62
2022/12/14 03:17:10;;;;;;;25.40;15.98;;;0.30;99.90;;;;;;5035267;28;20507;-62
2022/12/14 03:19:43;;;;;;;28.27;17.55;;;0.30;99.90;;;;;;5035118;28;20038;-62
2022/12/14 03:22:14;;;;;;;23.67;16.45;;;0.30;99.90;;;;;;5034865;28;20045;-62
2022/12/14 03:24:41;;;;;;;21.42;14.63;;;0.30;99.90;;;;;;5035592;28;20495;-62
2022/12/14 03:27:08;;;;;;;26.08;17.25;;;0.30;99.90;;;;;;5034001;28;20087;-62
2022/12/14 03:29:35;;;;;;;24.35;16.65;;;0.30;99.90;;;;;;5035123;28;20049;-62
2022/12/14 03:32:02;;;;;;;25.00;16.13;;;0.20;99.90;;;;;;5039426;28;20120;-62
2022/12/14 03:34:29;;;;;;;24.05;16.30;;;0.20;99.90;;;;;;5055148;28;20092;-62
2022/12/14 03:36:55;;;;;;;22.77;15.48;;;0.20;99.90;;;;;;5054064;28;20124;-63
2022/12/14 03:39:22;;;;;;;27.55;17.58;;;0.20;99.90;;;;;;5055025;28;20061;-62
2022/12/14 03:41:49;;;;;;;23.88;14.55;;;0.20;99.90;;;;;;5054251;28;20045;-63
2022/12/14 03:44:16;;;;;;;25.65;16.55;;;0.20;99.90;;;;;;5055172;28;20048;-63
2022/12/14 03:46:43;;;;;;;24.27;16.10;;;0.10;99.90;;;;;;5054840;28;20466;-63
2022/12/14 03:49:09;;;;;;;24.40;15.88;;;0.10;99.90;;;;;;5047812;28;20050;-62
2022/12/14 03:51:36;;;;;;;23.98;16.00;;;0.10;99.90;;;;;;5034447;28;20038;-62
2022/12/14 03:54:03;;;;;;;19.77;14.20;;;0.00;99.90;;;;;;5035212;28;20311;-62
2022/12/14 03:56:30;;;;;;;19.95;13.63;;;0.00;99.90;;;;;;5035063;28;20034;-62
2022/12/14 03:58:56;;;;;;;22.80;15.57;;;0.00;99.90;;;;;;5034943;28;20064;-62
2022/12/14 04:01:23;;;;;;;22.60;15.75;;;0.00;99.90;;;;;;5035112;28;20096;-62
2022/12/14 04:03:50;;;;;;;26.15;17.33;;;-0.10;99.90;;;;;;5035057;28;20041;-62
2022/12/14 04:06:17;;;;;;;25.67;16.85;;;-0.10;99.90;;;;;;5034972;28;20061;-63
2022/12/14 04:08:43;;;;;;;26.75;17.75;;;-0.10;99.90;;;;;;5053093;28;20044;-63
2022/12/14 04:19:46;;;;;;;27.38;16.20;;;-0.10;99.90;;;;;;5006092;28;20322;-62
2022/12/14 04:22:15;;;;;;;23.00;16.50;;;-0.20;99.90;;;;;;5045909;28;20052;-62
2022/12/14 04:27:27;;;;;;;22.63;15.35;;;-0.20;99.90;;;;;;5047115;28;20046;-62
2022/12/14 04:29:58;;;;;;;25.63;15.68;;;-0.20;99.90;;;;;;5033296;28;20381;-62
2022/12/14 04:32:25;;;;;;;23.50;15.95;;;-0.20;99.90;;;;;;5032994;28;20410;-62
2022/12/14 04:34:51;;;;;;;24.00;15.70;;;-0.20;99.90;;;;;;5040780;28;20040;-62
2022/12/14 04:37:18;;;;;;;21.75;15.32;;;-0.30;99.90;;;;;;5054101;28;20056;-62
2022/12/14 04:39:45;;;;;;;23.05;15.35;;;-0.30;99.90;;;;;;5047173;28;20038;-62
2022/12/14 04:42:12;;;;;;;22.60;16.15;;;-0.30;99.90;;;;;;5033637;28;20045;-62
2022/12/14 04:44:38;;;;;;;27.13;17.70;;;-0.30;99.90;;;;;;5033580;28;20041;-62
2022/12/14 04:47:05;;;;;;;25.60;16.13;;;-0.30;99.90;;;;;;5031916;28;20049;-62
2022/12/14 04:49:32;;;;;;;23.45;15.77;;;-0.40;99.90;;;;;;5033351;28;20063;-62
2022/12/14 04:52:02;;;;;;;21.38;16.13;;;-0.40;99.90;;;;;;5033485;28;20103;-62
2022/12/14 04:54:31;;;;;;;23.13;14.75;;;-0.40;99.90;;;;;;5033938;28;20040;-62
2022/12/14 04:56:58;;;;;;;23.15;15.88;;;-0.50;99.90;;;;;;5053661;28;20399;-62
2022/12/14 04:59:24;;;;;;;24.55;15.88;;;-0.50;99.90;;;;;;5045494;28;20095;-62
2022/12/14 05:01:51;;;;;;;26.50;15.73;;;-0.50;99.90;;;;;;5048018;28;20534;-62
2022/12/14 05:04:18;;;;;;;25.17;16.25;;;-0.40;99.90;;;;;;5052306;28;20055;-62
2022/12/14 05:06:45;;;;;;;24.02;16.77;;;-0.50;99.90;;;;;;5044783;28;20037;-62
2022/12/14 05:09:11;;;;;;;27.30;17.50;;;-0.50;99.90;;;;;;5033099;28;20042;-62
2022/12/14 05:11:38;;;;;;;22.40;15.00;;;-0.50;99.90;;;;;;5032559;28;20053;-63
2022/12/14 05:14:18;;;;;;;23.30;15.82;;;-0.50;99.90;;;;;;5033218;28;20417;-62
2022/12/14 05:16:45;;;;;;;22.15;15.55;;;-0.60;99.90;;;;;;5032950;28;20068;-63
2022/12/14 05:19:14;;;;;;;23.17;15.15;;;-0.60;99.90;;;;;;5039560;28;20207;-62
2022/12/14 05:21:47;;;;;;;22.02;15.75;;;-0.70;99.90;;;;;;5034054;28;20037;-62
2022/12/14 05:24:14;;;;;;;23.88;16.65;;;-0.70;99.90;;;;;;5031972;28;20154;-62
2022/12/14 05:26:40;;;;;;;28.13;17.38;;;-0.80;99.90;;;;;;5039470;28;20124;-62
2022/12/14 05:29:07;;;;;;;22.33;16.33;;;-0.80;99.90;;;;;;5035890;28;20041;-62
2022/12/14 05:31:34;;;;;;;23.13;15.95;;;-0.80;99.90;;;;;;5033046;28;20101;-62
2022/12/14 05:34:01;;;;;;;24.00;16.08;;;-0.80;99.90;;;;;;5032562;28;20068;-62
2022/12/14 05:36:28;;;;;;;23.73;15.65;;;-0.80;99.90;;;;;;5031787;28;20038;-62
2022/12/14 05:38:55;;;;;;;19.38;13.95;;;-0.80;99.90;;;;;;5032669;28;20050;-62
2022/12/14 05:41:21;;;;;;;20.70;14.80;;;-0.80;99.90;;;;;;5032788;28;20045;-62
2022/12/14 05:43:48;;;;;;;22.02;15.38;;;-0.80;99.90;;;;;;5032178;28;20169;-62
2022/12/14 05:46:15;;;;;;;20.27;15.23;;;-0.80;99.90;;;;;;5033033;28;20037;-62
2022/12/14 05:48:42;;;;;;;21.35;14.85;;;-0.80;99.90;;;;;;5031054;28;20038;-62
2022/12/14 05:51:14;;;;;;;23.02;15.13;;;-0.80;99.90;;;;;;5031597;28;20060;-62
2022/12/14 05:53:41;;;;;;;20.73;14.52;;;-0.80;99.90;;;;;;5032487;28;20041;-62
2022/12/14 05:56:08;;;;;;;22.92;15.63;;;-0.80;99.90;;;;;;5032361;28;20060;-62
2022/12/14 05:58:35;;;;;;;22.50;15.45;;;-0.80;99.90;;;;;;5032140;28;20041;-62
2022/12/14 06:01:02;;;;;;;21.77;15.10;;;-0.80;99.90;;;;;;5031796;28;20096;-62
2022/12/14 06:03:29;;;;;;;19.75;14.63;;;-0.80;99.90;;;;;;5032000;28;20133;-62
2022/12/14 06:05:56;;;;;;;20.08;14.05;;;-0.90;99.90;;;;;;5032504;28;20066;-62
2022/12/14 06:08:23;;;;;;;22.58;15.05;;;-0.90;99.90;;;;;;5032163;28;20116;-63
2022/12/14 06:10:50;;;;;;;21.70;15.27;;;-0.90;99.90;;;;;;5032314;28;20457;-62
2022/12/14 06:13:17;;;;;;;22.88;15.00;;;-0.90;99.90;;;;;;5031463;28;20410;-62
2022/12/14 06:15:43;;;;;;;22.00;14.98;;;-0.90;99.90;;;;;;5032907;28;20489;-62
2022/12/14 06:18:10;;;;;;;23.02;15.60;;;-1.00;99.90;;;;;;5032280;28;20426;-62
2022/12/14 06:20:37;;;;;;;26.40;16.55;;;-1.00;99.90;;;;;;5031563;28;20046;-62
2022/12/14 06:23:04;;;;;;;22.23;15.52;;;-1.00;99.90;;;;;;5044859;28;20554;-62
2022/12/14 06:25:30;;;;;;;24.67;16.70;;;-1.10;99.90;;;;;;5032581;28;20052;-62
2022/12/14 06:27:57;;;;;;;28.20;17.58;;;-1.10;99.90;;;;;;5032064;28;20045;-62
2022/12/14 06:30:24;;;;;;;27.42;18.30;;;-1.10;99.90;;;;;;5031229;28;20099;-62
2022/12/14 06:32:50;;;;;;;26.35;17.90;;;-1.20;99.90;;;;;;5031480;28;20037;-62
2022/12/14 06:35:17;;;;;;;26.73;17.02;;;-1.20;99.90;;;;;;5032435;28;20393;-62
2022/12/14 06:37:44;;;;;;;29.67;18.73;;;-1.20;99.90;;;;;;5032261;28;20108;-62
2022/12/14 06:40:14;;;;;;;29.80;20.23;;;-1.20;99.90;;;;;;5029907;28;20041;-62
2022/12/14 06:42:41;;;;;;;29.83;19.15;;;-1.20;99.90;;;;;;5031701;28;20470;-62
2022/12/14 06:45:07;;;;;;;29.95;19.77;;;-1.20;99.90;;;;;;5030647;28;20065;-62
2022/12/14 06:47:34;;;;;;;30.80;19.60;;;-1.30;99.90;;;;;;5034399;28;20091;-62
2022/12/14 06:50:04;;;;;;;32.30;20.60;;;-1.30;99.90;;;;;;5035227;28;20431;-62
2022/12/14 06:52:31;;;;;;;30.00;19.58;;;-1.30;99.90;;;;;;5035456;28;20045;-65
2022/12/14 06:54:58;;;;;;;32.53;21.00;;;-1.30;99.90;;;;;;5035238;28;20059;-62
2022/12/14 06:57:26;;;;;;;32.58;20.00;;;-1.30;99.90;;;;;;5043490;28;20094;-61
2022/12/14 06:59:52;;;;;;;35.75;22.08;;;-1.30;99.90;;;;;;5036122;28;20124;-62
2022/12/14 07:02:19;;;;;;;34.92;21.20;;;-1.40;99.90;;;;;;5035627;28;20041;-62
2022/12/14 07:04:46;;;;;;;34.72;21.88;;;-1.40;99.90;;;;;;5051993;28;20060;-62
2022/12/14 07:07:13;;;;;;;36.55;22.60;;;-1.40;99.90;;;;;;5055324;28;20041;-62
2022/12/14 07:09:40;;;;;;;37.58;21.58;;;-1.40;99.90;;;;;;5044265;28;20045;-62
2022/12/14 07:12:07;;;;;;;39.90;23.63;;;-1.40;99.90;;;;;;5034662;28;20069;-62
2022/12/14 07:14:34;;;;;;;35.92;22.75;;;-1.50;99.90;;;;;;5035239;28;20120;-62
2022/12/14 07:17:00;;;;;;;36.42;23.50;;;-1.50;99.90;;;;;;5034897;28;20422;-62
2022/12/14 07:19:27;;;;;;;35.42;22.10;;;-1.50;99.90;;;;;;5035181;28;20038;-62
2022/12/14 07:21:54;;;;;;;34.85;21.75;;;-1.50;99.90;;;;;;5035020;28;20400;-62
2022/12/14 07:24:21;;;;;;;37.25;22.60;;;-1.50;99.90;;;;;;5034358;28;20033;-62
2022/12/14 07:26:48;;;;;;;37.65;22.50;;;-1.50;99.90;;;;;;5034360;28;20034;-62
2022/12/14 07:29:15;;;;;;;37.75;22.85;;;-1.50;99.90;;;;;;5035160;28;20125;-62
2022/12/14 07:31:42;;;;;;;35.90;22.70;;;-1.50;99.90;;;;;;5037896;28;20041;-62
2022/12/14 07:34:14;;;;;;;38.70;23.15;;;-1.60;99.90;;;;;;5034402;28;20111;-62
2022/12/14 07:36:42;;;;;;;38.90;23.02;;;-1.60;99.90;;;;;;5034324;28;20052;-62
2022/12/14 07:39:09;;;;;;;36.00;22.05;;;-1.50;99.90;;;;;;5034994;28;20064;-62
2022/12/14 07:41:35;;;;;;;37.10;22.55;;;-1.60;99.90;;;;;;5043921;28;20037;-62
2022/12/14 07:44:02;;;;;;;37.30;22.77;;;-1.60;99.90;;;;;;5034345;28;20527;-62
2022/12/14 07:46:29;;;;;;;37.92;23.52;;;-1.60;99.90;;;;;;5040223;28;20550;-61
2022/12/14 07:48:56;;;;;;;42.55;24.52;;;-1.60;99.90;;;;;;5033614;28;20109;-62
2022/12/14 07:51:23;;;;;;;41.17;24.00;;;-1.60;99.90;;;;;;5032973;28;20064;-63
2022/12/14 07:53:50;;;;;;;35.15;22.42;;;-1.60;99.90;;;;;;5034161;28;20107;-62
2022/12/14 07:56:17;;;;;;;38.40;22.98;;;-1.60;99.90;;;;;;5037873;28;20443;-62
2022/12/14 07:58:43;;;;;;;36.88;22.90;;;-1.60;99.90;;;;;;5035603;28;20120;-63
2022/12/14 08:01:11;;;;;;;41.90;23.92;;;-1.60;99.90;;;;;;5034565;28;20134;-62
2022/12/14 08:03:38;;;;;;;37.35;24.33;;;-1.60;99.90;;;;;;5034141;28;20061;-62
2022/12/14 08:06:05;;;;;;;38.65;23.08;;;-1.60;99.90;;;;;;5033238;28;20385;-63
2022/12/14 08:08:31;;;;;;;35.08;21.58;;;-1.60;99.90;;;;;;5036497;28;20037;-62
2022/12/14 08:10:58;;;;;;;41.38;24.30;;;-1.60;99.90;;;;;;5034510;28;20037;-62
2022/12/14 08:13:25;;;;;;;37.78;22.88;;;-1.60;99.90;;;;;;5044505;28;20139;-62
2022/12/14 08:15:53;;;;;;;39.67;23.23;;;-1.60;99.90;;;;;;5044895;28;20068;-62
2022/12/14 08:18:21;;;;;;;39.40;23.30;;;-1.60;99.90;;;;;;5044215;28;20033;-62
2022/12/14 08:20:48;;;;;;;41.58;22.63;;;-1.60;99.90;;;;;;5038796;28;20048;-62
2022/12/14 08:23:19;;;;;;;37.83;22.75;;;-1.60;99.90;;;;;;5052945;28;20369;-62
2022/12/14 08:25:45;;;;;;;42.38;23.45;;;-1.60;99.90;;;;;;5043829;28;20531;-62
2022/12/14 08:28:12;;;;;;;38.80;22.40;;;-1.60;99.90;;;;;;5044395;28;20071;-63
2022/12/14 08:30:39;;;;;;;38.50;22.40;;;-1.60;99.90;;;;;;5044027;28;20044;-62
2022/12/14 08:33:06;;;;;;;34.80;21.35;;;-1.60;99.90;;;;;;5037925;28;20098;-61
2022/12/14 08:35:32;;;;;;;36.42;21.98;;;-1.60;99.90;;;;;;5050639;28;20408;-62
2022/12/14 08:37:59;;;;;;;36.78;21.10;;;-1.60;99.90;;;;;;5032943;28;20068;-61
2022/12/14 08:40:26;;;;;;;38.25;21.83;;;-1.60;99.90;;;;;;5039973;28;20608;-61
2022/12/14 08:42:52;;;;;;;39.67;21.40;;;-1.50;99.90;;;;;;5043540;28;20536;-61
2022/12/14 08:45:19;;;;;;;39.70;22.67;;;-1.50;99.90;;;;;;5031749;28;20042;-62
2022/12/14 08:47:46;;;;;;;39.22;21.67;;;-1.50;99.90;;;;;;5038242;28;20503;-62
2022/12/14 08:50:13;;;;;;;38.70;22.40;;;-1.50;99.90;;;;;;5056687;28;20338;-62
2022/12/14 08:52:39;;;;;;;39.42;21.88;;;-1.50;99.90;;;;;;5052539;28;20033;-62
2022/12/14 08:55:06;;;;;;;38.97;22.77;;;-1.50;99.90;;;;;;5047115;28;20077;-62
2022/12/14 08:57:33;;;;;;;34.40;20.27;;;-1.40;99.90;;;;;;5049147;28;20086;-62
2022/12/14 09:00:00;;;;;;;38.40;21.02;;;-1.40;99.90;;;;;;5036916;28;20084;-62
2022/12/14 09:02:28;;;;;;;36.97;21.48;;;-1.40;99.90;;;;;;5045811;28;20048;-61
2022/12/14 09:04:55;;;;;;;38.38;20.70;;;-1.40;99.90;;;;;;5050840;28;20057;-61
2022/12/14 09:07:22;;;;;;;35.58;21.38;;;-1.40;99.90;;;;;;5040899;28;20088;-62
2022/12/14 09:09:49;;;;;;;34.00;20.08;;;-1.30;99.90;;;;;;5035943;28;20095;-63
2022/12/14 09:12:15;;;;;;;37.17;20.65;;;-1.30;99.90;;;;;;5037822;28;20098;-61
2022/12/14 09:14:45;;;;;;;36.90;20.40;;;-1.20;99.90;;;;;;5044708;28;20535;-62
2022/12/14 09:17:14;;;;;;;38.00;21.85;;;-1.20;99.90;;;;;;5040833;28;20048;-62
2022/12/14 09:19:41;;;;;;;33.80;20.13;;;-1.10;99.90;;;;;;5040653;28;20249;-62
2022/12/14 09:22:08;;;;;;;34.90;19.98;;;-1.10;99.90;;;;;;5036015;28;20483;-62
2022/12/14 09:24:35;;;;;;;35.00;19.05;;;-1.10;99.90;;;;;;5043681;28;20391;-62
2022/12/14 09:27:02;;;;;;;31.42;18.33;;;-1.00;99.90;;;;;;5041044;28;20064;-62
2022/12/14 09:29:28;;;;;;;32.35;18.90;;;-1.10;99.90;;;;;;5045033;28;20044;-61
2022/12/14 09:31:55;;;;;;;35.80;19.38;;;-1.10;99.90;;;;;;5045354;28;20064;-62
2022/12/14 09:34:23;;;;;;;33.45;17.98;;;-1.00;99.90;;;;;;5038776;28;20044;-62
2022/12/14 09:36:51;;;;;;;32.17;18.48;;;-1.00;99.90;;;;;;5044998;28;20398;-62
2022/12/14 09:39:17;;;;;;;33.22;18.35;;;-0.90;99.90;;;;;;5044666;28;20558;-61
2022/12/14 09:41:44;;;;;;;31.38;17.17;;;-0.90;99.90;;;;;;5044826;28;20045;-62
2022/12/14 09:44:16;;;;;;;34.85;19.27;;;-0.90;99.90;;;;;;5049867;28;20052;-62
2022/12/14 09:46:44;;;;;;;32.38;16.95;;;-0.80;99.90;;;;;;5034597;28;20045;-61
2022/12/14 09:49:11;;;;;;;31.08;16.75;;;-0.80;99.90;;;;;;5040226;28;20049;-62
2022/12/14 09:51:38;;;;;;;30.30;17.25;;;-0.80;99.90;;;;;;5037318;28;20097;-63
2022/12/14 09:54:05;;;;;;;32.83;17.58;;;-0.80;99.90;;;;;;5039231;28;20128;-62
2022/12/14 09:56:31;;;;;;;30.73;16.52;;;-0.80;99.90;;;;;;5043034;28;20053;-64
2022/12/14 09:58:58;;;;;;;30.40;16.30;;;-0.70;99.90;;;;;;5037173;28;20049;-62
2022/12/14 10:01:25;;;;;;;30.75;17.48;;;-0.60;99.90;;;;;;5041190;28;20061;-62
2022/12/14 10:03:52;;;;;;;32.42;17.38;;;-0.50;99.90;;;;;;5032275;28;20052;-63
2022/12/14 10:06:20;;;;;;;29.27;16.80;;;-0.50;99.90;;;;;;5034525;28;20048;-62
2022/12/14 10:08:46;;;;;;;28.85;16.55;;;-0.40;99.90;;;;;;5052358;28;20040;-62
2022/12/14 10:11:20;;;;;;;29.08;16.80;;;-0.40;99.90;;;;;;5052385;28;20111;-62
2022/12/14 10:13:46;;;;;;;27.98;15.88;;;-0.50;99.90;;;;;;5041028;28;20112;-62
2022/12/14 10:16:13;;;;;;;35.55;17.80;;;-0.40;99.90;;;;;;5043769;28;20040;-63
2022/12/14 10:18:40;;;;;;;29.75;16.83;;;-0.40;99.90;;;;;;5034254;28;20037;-61
2022/12/14 10:21:27;;;;;;;30.55;16.67;;;-0.40;99.90;;;;;;5033787;28;20073;-62
2022/12/14 10:23:53;;;;;;;29.35;16.73;;;-0.40;99.90;;;;;;5050064;28;20047;-61
2022/12/14 10:26:20;;;;;;;27.48;16.90;;;-0.40;99.90;;;;;;5055976;28;20472;-62
2022/12/14 10:28:47;;;;;;;38.35;16.27;;;-0.30;99.90;;;;;;5056379;28;20090;-62
2022/12/14 10:31:14;;;;;;;32.10;17.20;;;-0.30;99.90;;;;;;5042655;28;20048;-62
2022/12/14 10:33:40;;;;;;;30.30;15.77;;;-0.20;99.90;;;;;;5035285;28;20045;-62
2022/12/14 10:36:07;;;;;;;28.02;16.70;;;-0.20;99.90;;;;;;5034596;28;20489;-63
2022/12/14 10:38:34;;;;;;;27.40;16.63;;;-0.20;99.90;;;;;;5036130;28;20043;-63
2022/12/14 10:41:01;;;;;;;30.17;16.00;;;-0.10;99.90;;;;;;5035864;28;20122;-63
2022/12/14 10:43:28;;;;;;;27.75;16.10;;;0.00;99.90;;;;;;5035872;28;20076;-62
2022/12/14 10:45:55;;;;;;;28.05;16.08;;;0.00;99.90;;;;;;5039047;28;20424;-62
2022/12/14 10:48:22;;;;;;;28.33;15.88;;;0.00;99.90;;;;;;5049312;28;20407;-62
2022/12/14 10:50:49;;;;;;;27.05;15.52;;;0.10;99.90;;;;;;5043042;28;20045;-63
2022/12/14 10:53:16;;;;;;;29.25;16.58;;;0.10;99.90;;;;;;5036084;28;20427;-62
2022/12/14 10:55:43;;;;;;;30.05;15.88;;;0.20;99.90;;;;;;5042783;28;20549;-62
2022/12/14 10:58:09;;;;;;;27.02;15.63;;;0.20;99.90;;;;;;5056029;28;20086;-62
2022/12/14 11:00:36;;;;;;;30.95;16.90;;;0.20;99.90;;;;;;5055782;28;20045;-62
2022/12/14 11:03:03;;;;;;;28.38;16.30;;;0.20;99.90;;;;;;5055853;28;20041;-62
2022/12/14 11:05:30;;;;;;;29.08;15.35;;;0.20;99.90;;;;;;5055535;28;20053;-62
2022/12/14 11:08:02;;;;;;;27.52;15.35;;;0.20;99.90;;;;;;5055370;28;20099;-62
2022/12/14 11:10:29;;;;;;;25.98;15.52;;;0.30;99.90;;;;;;5055452;28;20484;-61
2022/12/14 11:12:56;;;;;;;26.80;15.65;;;0.30;99.90;;;;;;5055534;28;20041;-61
2022/12/14 11:15:23;;;;;;;26.83;15.38;;;0.30;99.90;;;;;;5055383;28;20037;-61
2022/12/14 11:17:49;;;;;;;26.10;15.50;;;0.30;99.90;;;;;;5055257;28;20044;-61
2022/12/14 11:20:16;;;;;;;24.98;14.75;;;0.30;99.90;;;;;;5055361;28;20045;-61
2022/12/14 11:22:43;;;;;;;31.33;14.88;;;0.30;99.90;;;;;;5055389;28;20048;-62
2022/12/14 11:25:10;;;;;;;26.55;15.27;;;0.30;99.90;;;;;;5055288;28;20480;-61
2022/12/14 11:27:37;;;;;;;27.17;15.15;;;0.40;99.90;;;;;;5054063;28;20353;-61
2022/12/14 11:30:03;;;;;;;29.52;16.67;;;0.40;99.90;;;;;;5054710;28;20116;-61
2022/12/14 11:32:30;;;;;;;29.70;14.80;;;0.40;99.90;;;;;;5054559;28;20399;-61
2022/12/14 11:34:57;;;;;;;27.17;15.25;;;0.40;99.90;;;;;;5054699;28;20111;-61
2022/12/14 11:37:24;;;;;;;29.67;15.30;;;0.40;99.90;;;;;;5055095;28;20111;-61
2022/12/14 11:39:51;;;;;;;26.23;15.50;;;0.40;99.90;;;;;;5042952;28;20049;-61
2022/12/14 11:42:17;;;;;;;26.25;14.07;;;0.40;99.90;;;;;;5046931;28;20056;-61
2022/12/14 11:44:45;;;;;;;27.20;14.98;;;0.40;99.90;;;;;;5055149;28;20059;-62
2022/12/14 11:47:11;;;;;;;24.48;14.00;;;0.30;99.90;;;;;;5054692;28;20099;-62
2022/12/14 11:49:38;;;;;;;26.10;14.75;;;0.30;99.90;;;;;;5054564;28;20052;-61
2022/12/14 11:52:05;;;;;;;24.90;14.55;;;0.30;99.90;;;;;;5055049;28;20127;-61
2022/12/14 11:54:31;;;;;;;25.48;14.98;;;0.30;99.90;;;;;;5054415;28;20396;-61
2022/12/14 11:56:58;;;;;;;26.50;15.25;;;0.30;99.90;;;;;;5049642;28;20104;-61
2022/12/14 11:59:25;;;;;;;29.05;14.70;;;0.30;99.90;;;;;;5052638;28;20049;-61
2022/12/14 12:01:52;;;;;;;24.48;14.85;;;0.30;99.90;;;;;;5054158;28;20048;-62
2022/12/14 12:04:19;;;;;;;26.13;15.00;;;0.30;99.90;;;;;;5053898;28;20465;-61
2022/12/14 12:06:45;;;;;;;25.98;15.35;;;0.30;99.90;;;;;;5043408;28;20042;-62
2022/12/14 12:09:12;;;;;;;26.80;15.23;;;0.30;99.90;;;;;;5036451;28;20037;-62
2022/12/14 12:11:39;;;;;;;23.48;14.63;;;0.20;99.90;;;;;;5046325;28;20529;-62
2022/12/14 12:14:05;;;;;;;27.52;15.73;;;0.30;99.90;;;;;;5036072;28;20065;-62
2022/12/14 12:16:34;;;;;;;22.17;13.32;;;0.30;99.90;;;;;;5045382;28;20037;-62
2022/12/14 12:19:01;;;;;;;26.40;14.90;;;0.30;99.90;;;;;;5055198;28;20052;-62
2022/12/14 12:21:37;;;;;;;;;;;0.30;99.90;;;;;;5043280;28;20117;-61
2022/12/14 12:24:03;;;;;;;25.73;13.93;;;0.40;99.90;;;;;;5041730;28;19920;-62
2022/12/14 12:26:30;;;;;;;24.20;14.02;;;0.40;99.90;;;;;;5038208;28;20547;-62
2022/12/14 12:28:57;;;;;;;25.98;14.00;;;0.40;99.90;;;;;;5047581;28;20045;-62
2022/12/14 12:31:24;;;;;;;23.15;13.48;;;0.40;99.90;;;;;;5039043;28;20075;-62
2022/12/14 12:33:50;;;;;;;24.48;14.02;;;0.40;99.90;;;;;;5042979;28;20059;-62
2022/12/14 12:36:17;;;;;;;25.77;15.07;;;0.40;99.90;;;;;;5039914;28;20055;-62
2022/12/14 12:38:49;;;;;;;24.95;14.10;;;0.40;99.90;;;;;;5041945;28;20072;-62
2022/12/14 12:41:16;;;;;;;23.73;14.48;;;0.40;99.90;;;;;;5043792;28;20076;-62
2022/12/14 12:43:42;;;;;;;24.35;14.95;;;0.40;99.90;;;;;;5042942;28;20543;-63